Mirny Airport
UERR : now visible

Airfield :











YOU CAN JOIN US ON...

 
LOGIN :

Register | Disclaimer

   EN    FR    IT 

 









Legend :    VFR   Marginal VFR   IFR   Intensive IFR   Very Intensive IFR
Visi :
Ceiling :
>= 8 km
>= 3000ft
5 to 8 km
1000 to 3000 ft
1500m to 5 km
500 to 1000 ft
800 to 1500m
200 to 500 ft
< 800m
< 200 ft
Symbols :   Thunderstorms  Fog  Heavy snow  Heavy precipitations  Wind > 20 kt






- Airport Elevation : 1156 ft
- IATA code : MJZ


UERR - Mirny

CURRENT METAR :
  • 270630Z 26007MPS 9999 -SN FEW040 M16/M17 Q1013 R25/390331 NOSIG RMK QFE729

EXPIRED METARs :
  • 270600Z 26007MPS 9999 -SN NSC M15/M17 Q1013 R25/390331 NOSIG RMK QFE729
  • 270530Z 26005MPS 9999 -SN NSC M15/M16 Q1013 R25/390331 NOSIG RMK QFE728
  • 270500Z 26006MPS 9999 -SN NSC M15/M16 Q1012 R25/390331 NOSIG RMK QFE728
  • 270430Z 27008MPS 3000 -SN NSC M15/M16 Q1012 R25/390331 NOSIG RMK QFE728
  • 270400Z 26006MPS CAVOK M15/M16 Q1011 R25/390331 NOSIG RMK QFE727

TAF TAF UERR
Valid from the 27 at 06:00 until the 28 at 06:00 UTC


270500Z 2706/2806 27005MPS 9999 SCT020 OVC100
TEMPO 2706/2709 3000 -SN SCT007 BKN015 OVC100



MET'MAP, your aeronautical weather chart ! - Copyright ORBIFLY December 2007 - Disclaimer

ORBIFLY MET'MAP TEAM :

Programming & Development : Alexandra Zaïnal
Concept & original design : Baudouin d'Aumeries
Assistance for programming : Marc-Olivier Méhu
Technical & hardware support : Manuel Goepfert

Contact : metmap@orbifly.com




SOURCES & CREDITS :

   NOAA       Earth
Advisory